Time;durP1;ratioP1;P1;durP2;ratioP2;P2;SDS_P1;SDS_P2;PMS_P1;PMS_P2;Temp;Humidity;BMP_temperature;BMP_pressure;BME280_temperature;BME280_humidity;BME280_pressure;Samples;Min_cycle;Max_cycle;Signal;HPM_P1;HPM_P2
2021/05/29 00:01:47;;;;;;;5.82;3.47;;;;;;;12.52;73.60;99826.56;4879681;29;20053;-60
2021/05/29 00:04:17;;;;;;;6.60;3.87;;;;;;;12.55;73.30;99831.63;4879682;29;20526;-61
2021/05/29 00:06:46;;;;;;;6.70;4.30;;;;;;;12.47;73.10;99823.16;4878495;29;20060;-60
2021/05/29 00:09:14;;;;;;;9.25;4.65;;;;;;;12.34;73.32;99827.50;4882860;29;20041;-61
2021/05/29 00:11:43;;;;;;;6.03;4.13;;;;;;;12.30;73.46;99822.41;4883300;29;20045;-61
2021/05/29 00:14:12;;;;;;;7.88;4.32;;;;;;;12.36;73.85;99824.91;4883101;29;20057;-61
2021/05/29 00:16:41;;;;;;;4.57;3.22;;;;;;;12.27;74.35;99822.41;4883277;29;20129;-61
2021/05/29 00:19:09;;;;;;;7.50;4.50;;;;;;;12.20;74.66;99831.84;4883127;29;20515;-61
2021/05/29 00:21:39;;;;;;;5.55;3.65;;;;;;;12.18;74.99;99819.91;4883131;29;20041;-61
2021/05/29 00:24:07;;;;;;;;;;;;;;;12.24;75.06;99835.25;4882398;29;20057;-61
2021/05/29 00:26:37;;;;;;;4.38;2.65;;;;;;;12.41;74.77;99830.88;4883114;29;19928;-61
2021/05/29 00:29:05;;;;;;;5.10;3.25;;;;;;;12.47;74.46;99828.28;4882962;29;20071;-60
2021/05/29 00:31:34;;;;;;;4.28;3.00;;;;;;;12.50;74.16;99823.16;4882883;29;20076;-61
2021/05/29 00:34:02;;;;;;;4.57;3.15;;;;;;;12.53;73.97;99828.25;4882888;29;20518;-61
2021/05/29 00:36:31;;;;;;;5.13;3.13;;;;;;;12.46;73.89;99831.69;4882903;29;20503;-61
2021/05/29 00:39:00;;;;;;;4.70;2.70;;;;;;;12.32;73.99;99838.59;4882788;29;20053;-60
2021/05/29 00:41:29;;;;;;;4.90;2.75;;;;;;;12.29;74.13;99838.63;4882807;29;20075;-61
2021/05/29 00:43:57;;;;;;;4.78;2.97;;;;;;;12.26;74.36;99838.66;4882768;29;20061;-61
2021/05/29 00:46:26;;;;;;;4.47;3.00;;;;;;;12.23;74.29;99836.97;4882746;29;20072;-61
2021/05/29 00:48:54;;;;;;;4.63;3.03;;;;;;;12.23;74.30;99833.53;4882695;29;20130;-61
2021/05/29 00:51:23;;;;;;;5.75;3.65;;;;;;;12.24;74.27;99832.69;4882462;29;20042;-61
2021/05/29 00:53:53;;;;;;;6.50;4.07;;;;;;;12.26;74.17;99838.66;4882554;29;20056;-61
2021/05/29 00:56:24;;;;;;;5.57;3.45;;;;;;;12.32;74.46;99825.81;4882629;29;20496;-61
2021/05/29 00:58:52;;;;;;;5.57;3.70;;;;;;;12.29;74.72;99820.69;4882872;29;20500;-61
2021/05/29 01:01:21;;;;;;;8.23;4.32;;;;;;;12.34;74.45;99821.53;4882403;29;20049;-61
2021/05/29 01:03:49;;;;;;;6.63;4.25;;;;;;;12.36;74.39;99819.81;4882359;29;20109;-61
2021/05/29 01:06:18;;;;;;;5.35;3.70;;;;;;;12.44;74.21;99813.78;4882679;29;20044;-61
2021/05/29 01:08:46;;;;;;;6.72;4.10;;;;;;;12.39;74.13;99815.53;4882634;29;20109;-61
2021/05/29 01:11:15;;;;;;;7.35;4.15;;;;;;;12.33;74.29;99820.69;4882139;29;20041;-61
2021/05/29 01:13:45;;;;;;;7.20;4.40;;;;;;;12.27;74.55;99819.84;4882097;29;20088;-61
2021/05/29 01:16:21;;;;;;;7.03;4.20;;;;;;;12.19;74.87;99821.63;4882202;29;20280;-61
2021/05/29 01:18:50;;;;;;;5.93;4.43;;;;;;;12.26;74.97;99828.41;4881910;29;20057;-61
2021/05/29 01:21:18;;;;;;;5.30;3.58;;;;;;;12.32;75.06;99820.69;4882049;29;20056;-60
2021/05/29 01:23:48;;;;;;;6.22;4.20;;;;;;;12.34;75.17;99818.97;4882076;29;20057;-61
2021/05/29 01:26:16;;;;;;;;;;;;;;;12.28;75.40;99824.13;4882473;29;20052;-60
2021/05/29 01:28:45;;;;;;;6.30;3.67;;;;;;;12.23;75.57;99815.63;4882037;29;20302;-60
2021/05/29 01:31:14;;;;;;;6.20;3.90;;;;;;;12.19;75.59;99829.31;4881866;29;20060;-61
2021/05/29 01:33:44;;;;;;;5.97;3.78;;;;;;;12.04;75.78;99825.94;4881917;29;20452;-61
2021/05/29 01:36:13;;;;;;;5.70;3.78;;;;;;;12.03;76.20;99821.69;4882411;29;20060;-61
2021/05/29 01:38:41;;;;;;;5.82;3.60;;;;;;;11.91;76.14;99821.75;4882112;29;20045;-61
2021/05/29 01:41:13;;;;;;;6.07;3.80;;;;;;;11.87;76.71;99814.94;4881757;29;20063;-61
2021/05/29 01:43:44;;;;;;;7.38;3.95;;;;;;;11.90;76.71;99808.97;4881802;29;20101;-61
2021/05/29 01:46:13;;;;;;;7.45;3.90;;;;;;;11.85;76.59;99811.53;4881763;29;20053;-61
2021/05/29 01:48:44;;;;;;;6.00;4.07;;;;;;;11.84;77.10;99816.66;4882469;29;20475;-61
2021/05/29 01:51:13;;;;;;;7.00;4.20;;;;;;;11.80;77.24;99808.16;4881517;29;20053;-61
2021/05/29 01:53:49;;;;;;;5.82;3.70;;;;;;;11.85;77.14;99818.38;4881542;29;20045;-61
2021/05/29 01:56:19;;;;;;;5.72;3.35;;;;;;;11.85;77.17;99811.53;4881506;29;20045;-61
2021/05/29 01:58:48;;;;;;;5.15;3.75;;;;;;;11.92;77.32;99813.22;4881476;29;20496;-61
2021/05/29 02:01:17;;;;;;;5.77;3.97;;;;;;;11.92;77.04;99808.13;4881644;29;20071;-61
2021/05/29 02:03:46;;;;;;;6.20;4.22;;;;;;;11.88;77.06;99811.50;4881369;29;20663;-61
2021/05/29 02:06:15;;;;;;;7.35;4.43;;;;;;;11.94;76.91;99810.66;4881338;29;20045;-61
2021/05/29 02:08:44;;;;;;;;;;;;;;;11.92;77.01;99820.91;4881680;29;20452;-61
2021/05/29 02:11:13;;;;;;;6.43;3.53;;;;;;;11.92;77.30;99823.47;4881381;29;19923;-61
2021/05/29 02:13:43;;;;;;;5.97;3.97;;;;;;;11.76;77.07;99816.69;4881115;29;20060;-60
2021/05/29 02:16:13;;;;;;;7.53;4.10;;;;;;;11.68;77.14;99812.44;4881178;29;20053;-59
2021/05/29 02:18:42;;;;;;;6.38;3.97;;;;;;;11.55;76.95;99809.03;4881127;29;20052;-59
2021/05/29 02:21:12;;;;;;;9.15;4.45;;;;;;;11.47;77.54;99812.50;4881060;29;20518;-59
2021/05/29 02:23:45;;;;;;;5.78;3.88;;;;;;;11.52;77.62;99816.72;4879767;29;20049;-59
2021/05/29 02:26:15;;;;;;;6.35;3.92;;;;;;;11.53;77.81;99820.97;4881010;29;20053;-59
2021/05/29 02:28:48;;;;;;;5.97;3.90;;;;;;;11.45;77.97;99815.88;4880987;29;20174;-60
2021/05/29 02:31:18;;;;;;;6.05;3.92;;;;;;;11.48;77.88;99815.03;4880184;29;20056;-60
2021/05/29 02:33:47;;;;;;;6.22;3.60;;;;;;;11.56;77.68;99813.31;4880653;29;20065;-59
2021/05/29 02:36:16;;;;;;;5.63;4.00;;;;;;;11.57;77.68;99802.22;4880744;29;20041;-59
2021/05/29 02:38:44;;;;;;;8.90;3.90;;;;;;;11.40;77.83;99802.25;4880779;29;20496;-59
2021/05/29 02:41:14;;;;;;;6.93;3.80;;;;;;;11.34;78.56;99791.22;4880688;29;20045;-59
2021/05/29 02:43:44;;;;;;;6.38;3.90;;;;;;;11.51;78.03;99802.25;4880677;29;20049;-59
2021/05/29 02:46:13;;;;;;;6.60;4.22;;;;;;;11.60;77.97;99804.78;4880672;29;20053;-59
2021/05/29 02:48:42;;;;;;;7.28;4.40;;;;;;;11.63;78.20;99804.78;4880592;29;20073;-59
2021/05/29 02:51:11;;;;;;;5.32;3.53;;;;;;;11.72;78.19;99809.88;4880571;29;20045;-59
2021/05/29 02:53:40;;;;;;;6.88;4.57;;;;;;;11.81;78.15;99814.94;4880324;29;20053;-59
2021/05/29 02:56:08;;;;;;;6.47;4.47;;;;;;;11.71;77.79;99813.28;4880442;29;20496;-59
2021/05/29 02:58:37;;;;;;;7.13;4.33;;;;;;;11.70;77.79;99811.59;4880638;29;20096;-60
2021/05/29 03:01:06;;;;;;;6.50;4.35;;;;;;;11.73;77.93;99816.72;4879276;29;20128;-59
2021/05/29 03:03:35;;;;;;;6.30;4.35;;;;;;;11.73;77.60;99814.16;4880349;29;20457;-60
2021/05/29 03:06:04;;;;;;;7.00;4.15;;;;;;;11.62;77.51;99815.84;4880253;29;20086;-59
2021/05/29 03:08:33;;;;;;;6.90;4.43;;;;;;;11.52;77.62;99816.72;4880321;29;20069;-59
2021/05/29 03:11:02;;;;;;;7.57;4.55;;;;;;;11.51;77.53;99819.28;4880254;29;20056;-59
2021/05/29 03:13:30;;;;;;;6.50;4.43;;;;;;;11.51;77.82;99830.38;4879763;29;20511;-59
2021/05/29 03:15:59;;;;;;;6.80;4.50;;;;;;;11.59;77.76;99823.50;4880176;29;20080;-59
2021/05/29 03:18:29;;;;;;;7.43;3.30;;;;;;;11.67;77.87;99826.91;4880118;29;20045;-59
2021/05/29 03:20:57;;;;;;;;;;;;;;;11.50;77.73;99823.53;4880774;29;20071;-59
2021/05/29 03:23:26;;;;;;;6.72;4.30;;;;;;;11.39;77.58;99817.59;4863465;29;20434;-59
2021/05/29 03:25:55;;;;;;;;;;;;;;;11.41;77.77;99813.34;4880422;29;20049;-59
2021/05/29 03:28:23;;;;;;;5.65;3.83;;;;;;;11.52;77.98;99819.25;4880017;29;19924;-59
2021/05/29 03:30:52;;;;;;;6.47;4.15;;;;;;;11.57;78.00;99815.00;4879976;29;20132;-59
2021/05/29 03:33:21;;;;;;;6.82;4.05;;;;;;;11.58;78.35;99816.72;4879797;29;20049;-59
2021/05/29 03:35:50;;;;;;;6.40;4.05;;;;;;;11.65;78.10;99820.09;4879847;29;20477;-59
2021/05/29 03:38:19;;;;;;;7.10;4.28;;;;;;;11.50;78.30;99823.53;4879873;29;20491;-59
2021/05/29 03:40:48;;;;;;;6.72;4.65;;;;;;;11.35;78.64;99823.56;4880107;29;20049;-59
2021/05/29 03:43:16;;;;;;;6.88;4.43;;;;;;;11.37;78.80;99824.44;4879716;29;20180;-59
2021/05/29 03:45:45;;;;;;;7.35;4.00;;;;;;;11.45;78.78;99821.00;4880014;29;20056;-59
2021/05/29 03:48:13;;;;;;;6.75;4.25;;;;;;;11.42;78.94;99822.72;4879784;29;20052;-59
2021/05/29 03:50:42;;;;;;;6.38;4.35;;;;;;;11.48;79.11;99825.25;4879749;29;20471;-59
2021/05/29 03:53:12;;;;;;;9.07;4.63;;;;;;;11.53;79.58;99827.78;4878770;29;20044;-59
2021/05/29 03:55:40;;;;;;;6.80;4.75;;;;;;;11.60;79.52;99840.56;4879681;29;20145;-59
2021/05/29 03:58:09;;;;;;;6.88;4.65;;;;;;;11.70;79.25;99828.63;4879681;29;20049;-59
2021/05/29 04:00:37;;;;;;;7.95;4.78;;;;;;;11.89;79.31;99833.69;4879614;29;20135;-61
2021/05/29 04:03:06;;;;;;;7.15;4.90;;;;;;;11.97;78.82;99831.94;4879588;29;20080;-59
2021/05/29 04:05:35;;;;;;;5.97;4.32;;;;;;;12.06;78.52;99842.16;4879471;29;20037;-60
2021/05/29 04:08:04;;;;;;;;;;;;;;;12.02;78.24;99835.31;4880059;29;20412;-61
2021/05/29 04:10:36;;;;;;;6.88;4.65;;;;;;;11.95;78.00;99843.03;4879612;29;19923;-60
2021/05/29 04:13:04;;;;;;;7.35;4.55;;;;;;;11.81;78.08;99830.28;4879357;29;20061;-61
2021/05/29 04:15:33;;;;;;;6.43;4.32;;;;;;;12.00;78.46;99842.16;4879422;29;20096;-60
2021/05/29 04:18:02;;;;;;;6.88;4.63;;;;;;;12.13;78.22;99847.22;4879556;29;20041;-61
2021/05/29 04:20:30;;;;;;;8.57;4.85;;;;;;;12.22;77.55;99852.28;4879511;29;20461;-61
2021/05/29 04:22:59;;;;;;;7.32;4.97;;;;;;;12.27;77.51;99859.09;4879477;29;20048;-59
2021/05/29 04:25:29;;;;;;;6.78;4.57;;;;;;;12.29;77.00;99853.97;4879397;29;20468;-61
2021/05/29 04:27:59;;;;;;;8.30;4.97;;;;;;;12.33;76.70;99850.56;4878326;29;20065;-61
2021/05/29 04:30:28;;;;;;;;;;;;;;;12.31;76.71;99847.97;4879844;29;20110;-61
2021/05/29 04:32:56;;;;;;;5.03;3.30;;;;;;;12.44;76.72;99848.78;4879611;29;19946;-61
2021/05/29 04:35:25;;;;;;;7.47;4.68;;;;;;;12.80;76.02;99840.88;4879615;29;20045;-60
2021/05/29 04:37:54;;;;;;;8.65;4.75;;;;;;;12.93;75.53;99837.38;4879385;29;20088;-59
2021/05/29 04:40:24;;;;;;;8.98;5.10;;;;;;;13.03;74.98;99836.41;4879606;29;20064;-60
2021/05/29 04:42:54;;;;;;;7.43;4.93;;;;;;;13.29;74.57;99843.94;4879387;29;20563;-60
2021/05/29 04:45:23;;;;;;;;;;;;;;;13.59;74.14;99837.63;4879770;29;20049;-60
2021/05/29 04:47:53;;;;;;;8.18;4.57;;;;;;;13.69;73.29;99836.69;4879234;29;20022;-61
2021/05/29 04:50:23;;;;;;;7.32;4.20;;;;;;;13.79;72.51;99848.53;4879569;29;20072;-60
2021/05/29 04:52:52;;;;;;;5.63;3.45;;;;;;;13.89;71.74;99839.88;4879205;29;20049;-60
2021/05/29 04:55:22;;;;;;;5.43;3.58;;;;;;;14.20;70.78;99848.91;4882319;29;20049;-60
2021/05/29 04:57:51;;;;;;;5.40;3.60;;;;;;;14.43;70.21;99846.06;4882555;29;20049;-60
2021/05/29 05:00:19;;;;;;;6.20;3.55;;;;;;;14.72;68.89;99846.50;4882392;29;20052;-61
2021/05/29 05:02:49;;;;;;;6.73;3.37;;;;;;;14.77;67.82;99850.69;4882343;29;20152;-60
2021/05/29 05:05:18;;;;;;;6.80;3.15;;;;;;;14.86;67.88;99852.28;4882347;29;20084;-61
2021/05/29 05:07:46;;;;;;;6.57;3.40;;;;;;;14.87;67.53;99853.97;4881856;29;20045;-61
2021/05/29 05:10:14;;;;;;;6.10;3.28;;;;;;;14.87;67.23;99853.97;4882123;29;20049;-61
2021/05/29 05:12:43;;;;;;;4.43;2.90;;;;;;;14.84;66.62;99848.88;4882101;29;20404;-61
2021/05/29 05:15:14;;;;;;;5.95;3.22;;;;;;;14.84;66.54;99845.47;4882484;29;20067;-61
2021/05/29 05:17:42;;;;;;;8.45;3.55;;;;;;;14.88;65.85;99850.53;4881825;29;20080;-61
2021/05/29 05:20:14;;;;;;;5.30;2.65;;;;;;;14.91;65.24;99849.63;4882444;29;20052;-61
2021/05/29 05:22:43;;;;;;;4.82;3.00;;;;;;;15.00;64.89;99845.19;4882158;29;20056;-61
2021/05/29 05:25:13;;;;;;;4.40;2.30;;;;;;;15.08;64.39;99847.63;4882080;29;20045;-61
2021/05/29 05:27:41;;;;;;;7.13;3.10;;;;;;;15.08;64.04;99842.50;4881805;29;20072;-61
2021/05/29 05:30:12;;;;;;;5.07;2.50;;;;;;;15.20;63.65;99842.28;4882241;29;20124;-61
2021/05/29 05:32:42;;;;;;;5.65;2.03;;;;;;;15.39;63.51;99841.09;4882234;29;20101;-61
2021/05/29 05:35:15;;;;;;;5.38;2.30;;;;;;;15.39;62.69;99846.25;4881996;29;20053;-61
2021/05/29 05:37:44;;;;;;;5.93;2.50;;;;;;;15.32;63.13;99839.50;4881854;29;20045;-62
2021/05/29 05:40:14;;;;;;;4.63;2.63;;;;;;;15.32;62.77;99842.94;4881723;29;20053;-61
2021/05/29 05:42:43;;;;;;;4.05;2.13;;;;;;;15.34;62.65;99845.47;4881838;29;20453;-62
2021/05/29 05:45:13;;;;;;;4.63;2.67;;;;;;;15.42;62.47;99844.50;4881174;29;20045;-61
2021/05/29 05:47:42;;;;;;;6.25;2.92;;;;;;;15.33;62.41;99849.75;4881748;29;20113;-60
2021/05/29 05:50:13;;;;;;;4.87;2.60;;;;;;;15.20;62.26;99847.44;4881636;29;20081;-61
2021/05/29 05:52:42;;;;;;;4.53;2.55;;;;;;;15.15;61.75;99849.25;4881492;29;20140;-60
2021/05/29 05:55:13;;;;;;;4.95;2.40;;;;;;;15.25;61.71;99850.78;4881546;29;20492;-60
2021/05/29 05:57:41;;;;;;;4.47;2.28;;;;;;;15.64;61.18;99855.28;4881742;29;20407;-60
2021/05/29 06:00:13;;;;;;;5.53;2.60;;;;;;;16.19;60.56;99859.34;4880929;29;20052;-61
2021/05/29 06:02:43;;;;;;;5.63;2.10;;;;;;;16.61;58.84;99850.72;4881316;29;20055;-61
2021/05/29 06:05:14;;;;;;;3.83;2.03;;;;;;;17.02;58.25;99845.44;4880321;29;20068;-61
2021/05/29 06:07:43;;;;;;;3.00;2.00;;;;;;;17.27;57.03;99837.94;4864661;29;20052;-61
2021/05/29 06:10:12;;;;;;;5.03;2.00;;;;;;;17.66;56.10;99843.84;4880930;29;20129;-61
2021/05/29 06:12:44;;;;;;;3.30;1.73;;;;;;;17.90;55.33;99848.34;4880474;29;20113;-61
2021/05/29 06:18:06;;;;;;;4.72;1.92;;;;;;;18.33;53.99;99853.13;4881119;29;20057;-61
2021/05/29 06:20:40;;;;;;;3.22;1.77;;;;;;;18.26;53.70;99855.03;4880981;29;20523;-61
2021/05/29 06:23:09;;;;;;;4.28;1.88;;;;;;;18.10;53.77;99851.19;4881273;29;20091;-62
2021/05/29 06:25:38;;;;;;;3.45;2.03;;;;;;;18.25;53.79;99849.91;4880609;29;20105;-62
2021/05/29 06:28:06;;;;;;;5.68;2.30;;;;;;;18.41;52.90;99846.84;4881239;29;20055;-61
2021/05/29 06:30:36;;;;;;;3.72;1.90;;;;;;;18.31;52.51;99855.75;4880588;29;20044;-59
2021/05/29 06:33:05;;;;;;;3.22;2.05;;;;;;;18.37;52.96;99853.00;4880530;29;20076;-59
2021/05/29 06:35:35;;;;;;;3.70;2.08;;;;;;;18.37;53.32;99850.41;4880870;29;20077;-60
2021/05/29 06:38:04;;;;;;;;;;;;;;;18.46;53.37;99857.91;4881134;29;20045;-60
2021/05/29 06:40:33;;;;;;;;;;;;;;;18.20;53.30;99862.97;4881318;29;20393;-61
2021/05/29 06:43:01;;;;;;;4.60;2.05;;;;;;;18.14;53.65;99862.31;4880609;29;19924;-61
2021/05/29 06:45:32;;;;;;;5.70;2.55;;;;;;;18.25;53.47;99865.41;4880590;29;20045;-60
2021/05/29 06:48:00;;;;;;;4.72;2.33;;;;;;;18.14;53.60;99868.28;4880569;29;20049;-61
2021/05/29 06:50:29;;;;;;;4.35;2.38;;;;;;;18.33;53.44;99864.28;4880553;29;20069;-61
2021/05/29 06:53:00;;;;;;;5.47;2.78;;;;;;;18.39;52.96;99869.28;4880418;29;20049;-61
2021/05/29 07:00:47;;;;;;;4.72;1.80;;;;;;;18.73;52.11;99858.81;4880747;29;20049;-61
2021/05/29 07:03:15;;;;;;;3.33;1.90;;;;;;;18.87;51.14;99860.97;4871934;29;20113;-61
2021/05/29 07:05:44;;;;;;;3.70;2.03;;;;;;;18.91;50.38;99865.16;4861296;29;20057;-60
2021/05/29 07:08:13;;;;;;;5.22;2.50;;;;;;;18.97;49.91;99862.38;4860542;29;20402;-60
2021/05/29 07:10:41;;;;;;;;;;;;;;;19.00;49.76;99863.13;4861903;29;20109;-62
2021/05/29 07:13:10;;;;;;;4.07;2.05;;;;;;;19.16;49.48;99853.13;4860894;29;20358;-60
2021/05/29 07:15:39;;;;;;;3.55;1.92;;;;;;;19.20;49.66;99854.69;4861479;29;20664;-60
2021/05/29 07:18:11;;;;;;;4.07;1.90;;;;;;;19.36;49.02;99845.59;4861462;29;20072;-62
2021/05/29 07:20:41;;;;;;;2.40;1.50;;;;;;;19.27;49.62;99844.09;4861553;29;20093;-61
2021/05/29 07:23:10;;;;;;;6.00;1.90;;;;;;;19.64;49.04;99841.16;4860768;29;20077;-62
2021/05/29 07:25:41;;;;;;;4.05;1.90;;;;;;;19.74;48.32;99847.69;4852893;29;20157;-61
2021/05/29 07:28:10;;;;;;;2.22;1.50;;;;;;;19.94;47.71;99855.59;4857343;29;20401;-61
2021/05/29 07:30:39;;;;;;;2.92;1.48;;;;;;;19.98;46.17;99844.22;4860893;29;20046;-61
2021/05/29 07:33:09;;;;;;;3.72;1.77;;;;;;;19.90;46.30;99854.03;4847965;29;20054;-60
2021/05/29 07:35:37;;;;;;;3.28;1.50;;;;;;;19.75;45.89;99853.69;4843829;29;20077;-61
2021/05/29 07:38:06;;;;;;;2.90;1.73;;;;;;;19.92;46.29;99851.34;4854920;29;20045;-61
2021/05/29 07:40:34;;;;;;;3.67;1.33;;;;;;;20.03;45.70;99828.50;4852908;29;20095;-60
2021/05/29 07:43:04;;;;;;;2.50;1.37;;;;;;;20.00;45.63;99844.16;4855136;29;20084;-61
2021/05/29 07:45:32;;;;;;;2.30;1.40;;;;;;;20.01;45.29;99851.06;4858235;29;20046;-61
2021/05/29 07:48:01;;;;;;;5.75;1.60;;;;;;;20.10;44.83;99849.84;4854059;29;20042;-61
2021/05/29 07:50:30;;;;;;;2.33;1.38;;;;;;;19.83;44.82;99851.69;4861392;29;20073;-60
2021/05/29 07:53:01;;;;;;;2.53;1.58;;;;;;;19.09;45.71;99846.47;4860878;29;20084;-61
2021/05/29 07:55:30;;;;;;;5.95;1.70;;;;;;;18.76;46.49;99847.53;4844904;29;20133;-59
2021/05/29 07:57:59;;;;;;;10.73;1.90;;;;;;;18.74;47.21;99840.66;4861183;29;20046;-61
2021/05/29 08:00:28;;;;;;;2.22;1.38;;;;;;;19.20;46.99;99840.03;4860328;29;20049;-62
2021/05/29 08:02:57;;;;;;;1.90;1.20;;;;;;;19.82;46.12;99856.03;4860788;29;20062;-61
2021/05/29 08:05:25;;;;;;;5.60;1.60;;;;;;;20.17;45.10;99846.13;4858005;29;20049;-61
2021/05/29 08:07:53;;;;;;;2.63;1.30;;;;;;;20.17;45.81;99846.13;4850808;29;20053;-61
2021/05/29 08:10:22;;;;;;;2.17;1.33;;;;;;;19.89;45.73;99857.50;4854502;29;20046;-61
2021/05/29 08:12:50;;;;;;;2.63;1.35;;;;;;;19.77;45.44;99852.75;4859435;29;20058;-62
2021/05/29 08:15:19;;;;;;;3.80;1.40;;;;;;;19.63;45.35;99847.22;4847283;29;20062;-61
2021/05/29 08:17:48;;;;;;;2.80;1.33;;;;;;;19.44;45.97;99853.91;4849718;29;20054;-61
2021/05/29 08:20:18;;;;;;;3.20;1.40;;;;;;;19.61;46.52;99848.16;4851807;29;20057;-60
2021/05/29 08:22:47;;;;;;;2.35;1.23;;;;;;;19.47;46.28;99848.66;4859150;29;20429;-60
2021/05/29 08:25:16;;;;;;;2.35;1.20;;;;;;;19.45;46.64;99860.81;4859296;29;20041;-60
2021/05/29 08:27:45;;;;;;;2.40;1.33;;;;;;;19.36;46.20;99846.41;4852636;29;20045;-62
2021/05/29 08:30:14;;;;;;;1.53;1.10;;;;;;;19.14;46.79;99844.56;4856285;29;20128;-62
2021/05/29 08:32:44;;;;;;;4.50;2.53;;;;;;;18.96;47.67;99840.81;4848188;29;20079;-61
2021/05/29 08:35:14;;;;;;;2.53;1.52;;;;;;;18.82;47.99;99842.16;4853566;29;20046;-61
2021/05/29 08:37:45;;;;;;;1.63;1.13;;;;;;;18.72;47.87;99850.22;4862259;29;20054;-61
2021/05/29 08:40:17;;;;;;;1.63;1.00;;;;;;;18.53;47.61;99846.50;4863441;29;20065;-61
2021/05/29 08:42:46;;;;;;;3.42;1.10;;;;;;;18.46;46.92;99839.81;4847716;29;20050;-61
2021/05/29 08:45:17;;;;;;;2.00;1.20;;;;;;;18.37;46.50;99847.81;4853030;29;20068;-62
2021/05/29 08:47:46;;;;;;;1.98;1.20;;;;;;;18.60;45.78;99837.66;4864196;29;20141;-61
2021/05/29 08:50:17;;;;;;;2.72;1.20;;;;;;;19.18;45.79;99844.41;4862420;29;20049;-61
2021/05/29 08:52:48;;;;;;;1.80;1.17;;;;;;;19.69;44.75;99841.84;4863957;29;20106;-61
2021/05/29 08:55:19;;;;;;;2.45;1.10;;;;;;;19.73;44.67;99835.63;4861298;29;20088;-61
2021/05/29 08:57:49;;;;;;;26.88;9.52;;;;;;;19.82;45.11;99837.06;4863214;29;20057;-61
2021/05/29 09:00:21;;;;;;;5.57;2.33;;;;;;;19.64;44.76;99835.97;4854356;29;20042;-62
2021/05/29 09:03:00;;;;;;;2.70;1.20;;;;;;;19.21;44.20;99830.53;4863812;29;20080;-61
2021/05/29 09:05:42;;;;;;;2.33;1.25;;;;;;;19.56;43.81;99832.78;4852128;29;20126;-61
2021/05/29 09:08:12;;;;;;;2.20;1.50;;;;;;;19.80;43.35;99839.69;4853566;29;20050;-61
2021/05/29 09:10:42;;;;;;;2.60;1.20;;;;;;;19.55;43.16;99828.53;4849611;29;20141;-61
2021/05/29 09:13:12;;;;;;;3.40;1.50;;;;;;;19.74;43.65;99826.97;4858180;29;20054;-61
2021/05/29 09:15:54;;;;;;;2.83;1.40;;;;;;;19.52;44.41;99836.38;4849218;29;20060;-62
2021/05/29 09:18:36;;;;;;;2.88;1.50;;;;;;;19.76;44.12;99835.53;4846263;29;20078;-61
2021/05/29 09:21:24;;;;;;;2.70;1.50;;;;;;;20.30;44.04;99826.69;4850807;29;20050;-61
2021/05/29 09:23:56;;;;;;;2.97;1.70;;;;;;;20.76;42.83;99818.78;4861482;29;20050;-64
2021/05/29 09:26:41;;;;;;;2.53;1.40;;;;;;;21.11;42.21;99818.25;4859709;29;20053;-61
2021/05/29 09:29:29;;;;;;;2.65;1.30;;;;;;;21.38;40.96;99811.88;4848296;29;20121;-61
2021/05/29 09:31:59;;;;;;;2.33;1.40;;;;;;;21.52;40.25;99819.09;4845239;29;20058;-61
2021/05/29 09:34:39;;;;;;;2.15;1.27;;;;;;;21.18;39.48;99814.47;4851361;29;20100;-61
2021/05/29 09:37:11;;;;;;;2.00;1.20;;;;;;;21.27;37.67;99803.69;4852363;29;20064;-61
2021/05/29 09:39:41;;;;;;;2.50;1.35;;;;;;;21.61;36.82;99812.66;4846102;29;20046;-61
2021/05/29 09:42:11;;;;;;;2.80;1.35;;;;;;;21.68;37.50;99814.91;4848992;29;20077;-62
2021/05/29 09:44:40;;;;;;;5.60;3.70;;;;;;;21.08;38.77;99800.19;4844313;29;20148;-62
2021/05/29 09:47:13;;;;;;;2.55;1.52;;;;;;;20.86;39.38;99817.50;4849126;29;20106;-64
2021/05/29 09:49:47;;;;;;;9.27;4.43;;;;;;;20.36;40.21;99826.44;4852952;29;20054;-61
2021/05/29 09:52:28;;;;;;;4.25;2.08;;;;;;;19.93;41.16;99825.41;4849507;29;20487;-61
2021/05/29 09:54:58;;;;;;;4.28;1.50;;;;;;;19.50;41.49;99827.84;4844992;29;20141;-61
2021/05/29 09:57:26;;;;;;;3.10;1.85;;;;;;;19.12;42.33;99830.84;4849270;29;20064;-61
2021/05/29 09:59:56;;;;;;;6.33;1.93;;;;;;;18.91;43.11;99829.78;4858704;29;20110;-60
2021/05/29 10:02:25;;;;;;;3.70;1.85;;;;;;;18.71;43.62;99830.41;4850278;29;20296;-62
2021/05/29 10:04:55;;;;;;;3.33;2.05;;;;;;;18.55;44.64;99831.78;4855262;29;20040;-61
2021/05/29 10:07:38;;;;;;;2.45;1.55;;;;;;;18.55;45.64;99834.38;4858363;29;20054;-61
2021/05/29 10:10:08;;;;;;;4.03;1.90;;;;;;;18.49;45.63;99831.13;4856161;29;20053;-62
2021/05/29 10:12:37;;;;;;;5.90;2.00;;;;;;;18.84;45.59;99809.31;4856790;29;20109;-60
2021/05/29 10:15:10;;;;;;;2.70;1.60;;;;;;;19.11;44.27;99821.38;4849875;29;20054;-61
2021/05/29 10:17:40;;;;;;;2.85;1.80;;;;;;;19.72;43.36;99815.84;4847650;29;20064;-61
2021/05/29 10:20:10;;;;;;;3.63;1.95;;;;;;;20.38;42.74;99819.44;4842803;29;20076;-61
2021/05/29 10:22:39;;;;;;;3.08;1.58;;;;;;;20.85;41.25;99822.78;4826988;29;20058;-61
2021/05/29 10:25:11;;;;;;;2.38;1.50;;;;;;;21.10;39.45;99819.13;4827613;29;20477;-62
2021/05/29 10:27:43;;;;;;;3.17;1.70;;;;;;;20.63;40.41;99820.19;4839330;29;20066;-63
2021/05/29 10:30:13;;;;;;;3.58;1.80;;;;;;;20.34;39.71;99829.09;4846834;29;20056;-62
2021/05/29 10:32:42;;;;;;;3.13;1.90;;;;;;;20.01;40.89;99831.13;4848992;29;20065;-62
2021/05/29 10:35:13;;;;;;;3.78;2.17;;;;;;;19.71;41.66;99827.06;4849937;29;20401;-61
2021/05/29 10:37:44;;;;;;;2.58;1.80;;;;;;;19.49;42.27;99820.09;4852595;29;20057;-61
2021/05/29 10:40:16;;;;;;;3.38;1.95;;;;;;;19.31;43.27;99826.75;4850367;29;20148;-61
2021/05/29 10:42:48;;;;;;;3.88;2.30;;;;;;;19.26;43.26;99815.69;4842090;29;20144;-63
2021/05/29 10:45:20;;;;;;;4.88;2.75;;;;;;;19.87;42.49;99823.03;4845508;29;20437;-61
2021/05/29 10:48:04;;;;;;;3.08;1.98;;;;;;;20.67;41.60;99806.19;4862327;29;20072;-60
2021/05/29 10:50:55;;;;;;;3.88;1.80;;;;;;;20.61;40.89;99816.81;4841102;29;20077;-61
2021/05/29 10:53:47;;;;;;;3.55;2.17;;;;;;;20.42;41.50;99821.03;4839323;29;20060;-61
2021/05/29 10:56:33;;;;;;;5.47;1.90;;;;;;;20.11;41.24;99821.28;4833064;29;20081;-61
2021/05/29 10:59:14;;;;;;;3.15;1.80;;;;;;;19.61;40.24;99835.22;4840240;29;20053;-61
2021/05/29 11:02:05;;;;;;;3.45;2.10;;;;;;;19.37;41.09;99826.56;4847456;29;20057;-61
2021/05/29 11:04:34;;;;;;;3.80;1.77;;;;;;;19.32;41.60;99833.59;4847965;29;20116;-62
2021/05/29 11:07:30;;;;;;;4.50;2.30;;;;;;;19.34;42.37;99831.78;4847290;29;20070;-61
2021/05/29 11:10:00;;;;;;;3.15;2.00;;;;;;;19.25;42.52;99832.09;4846594;29;20050;-62
2021/05/29 11:12:38;;;;;;;;;;;;;;;19.04;44.73;99833.69;4850030;29;20171;-63
2021/05/29 11:15:07;;;;;;;3.70;2.35;;;;;;;18.76;49.25;99845.81;4860066;29;19931;-61
2021/05/29 11:17:36;;;;;;;3.45;2.30;;;;;;;18.47;50.53;99841.53;4858319;29;20041;-63
2021/05/29 11:20:15;;;;;;;4.53;2.70;;;;;;;18.29;51.92;99839.44;4859557;29;20081;-61
2021/05/29 11:22:46;;;;;;;4.75;2.40;;;;;;;18.25;52.41;99840.44;4859400;29;20140;-61
2021/05/29 11:25:17;;;;;;;4.63;2.58;;;;;;;18.27;52.28;99841.22;4856179;29;20141;-62
2021/05/29 11:27:48;;;;;;;5.05;2.65;;;;;;;18.31;51.69;99835.06;4855808;29;20119;-62
2021/05/29 11:30:21;;;;;;;3.95;2.60;;;;;;;18.86;50.22;99833.44;4849274;29;20046;-61
2021/05/29 11:32:55;;;;;;;3.95;2.60;;;;;;;19.70;49.32;99817.59;4844192;29;20076;-61
2021/05/29 11:35:28;;;;;;;4.95;2.53;;;;;;;19.98;46.32;99823.50;4859504;29;20049;-62
2021/05/29 11:38:07;;;;;;;4.07;2.70;;;;;;;19.94;45.50;99827.09;4858163;29;20064;-62
2021/05/29 11:40:48;;;;;;;4.63;2.15;;;;;;;19.82;43.46;99822.34;4859943;29;20057;-61
2021/05/29 11:43:20;;;;;;;3.28;2.13;;;;;;;19.90;42.50;99812.56;4859063;29;20136;-61
2021/05/29 11:45:57;;;;;;;3.80;2.20;;;;;;;20.27;41.64;99826.78;4855366;29;20046;-62
2021/05/29 11:48:31;;;;;;;3.83;2.25;;;;;;;20.55;42.62;99827.41;4860011;29;20132;-61
2021/05/29 11:53:45;;;;;;;3.38;2.22;;;;;;;20.78;41.34;99821.31;4858992;29;20501;-63
2021/05/29 11:56:18;;;;;;;4.07;2.50;;;;;;;20.94;41.88;99812.88;4857051;29;20144;-61
2021/05/29 11:58:49;;;;;;;3.75;2.35;;;;;;;21.19;41.63;99815.31;4855654;29;20515;-62
2021/05/29 12:01:21;;;;;;;8.77;3.20;;;;;;;20.82;42.35;99815.94;4859523;29;20054;-62
2021/05/29 12:03:53;;;;;;;4.13;2.60;;;;;;;20.51;42.83;99820.66;4863305;29;20553;-62